sensor_id;sensor_type;location;lat;lon;timestamp;pressure;altitude;pressure_sealevel;temperature;humidity
58243;BME280;50118;53.232;8.252;2023-04-22T00:01:09;100918.00;;;11.42;72.07
58243;BME280;50118;53.232;8.252;2023-04-22T00:03:34;100917.03;;;11.43;72.17
58243;BME280;50118;53.232;8.252;2023-04-22T00:06:00;100910.13;;;11.50;70.97
58243;BME280;50118;53.232;8.252;2023-04-22T00:08:25;100907.06;;;11.45;71.65
58243;BME280;50118;53.232;8.252;2023-04-22T00:10:50;100910.28;;;11.39;72.13
58243;BME280;50118;53.232;8.252;2023-04-22T00:13:16;100914.81;;;11.29;72.21
58243;BME280;50118;53.232;8.252;2023-04-22T00:15:41;100917.50;;;11.29;72.44
58243;BME280;50118;53.232;8.252;2023-04-22T00:18:07;100910.50;;;11.28;72.92
58243;BME280;50118;53.232;8.252;2023-04-22T00:20:39;100905.06;;;11.10;73.75
58243;BME280;50118;53.232;8.252;2023-04-22T00:23:04;100909.72;;;10.98;74.79
58243;BME280;50118;53.232;8.252;2023-04-22T00:25:30;100906.50;;;11.04;74.19
58243;BME280;50118;53.232;8.252;2023-04-22T00:27:55;100912.69;;;10.95;73.95
58243;BME280;50118;53.232;8.252;2023-04-22T00:30:20;100901.72;;;10.98;74.56
58243;BME280;50118;53.232;8.252;2023-04-22T00:32:46;100908.78;;;10.79;75.01
58243;BME280;50118;53.232;8.252;2023-04-22T00:35:13;100906.28;;;10.78;75.68
58243;BME280;50118;53.232;8.252;2023-04-22T00:37:38;100919.19;;;10.63;77.41
58243;BME280;50118;53.232;8.252;2023-04-22T00:40:04;100918.63;;;10.50;77.92
58243;BME280;50118;53.232;8.252;2023-04-22T00:42:31;100926.59;;;10.40;79.94
58243;BME280;50118;53.232;8.252;2023-04-22T00:44:57;100903.50;;;10.40;79.07
58243;BME280;50118;53.232;8.252;2023-04-22T00:47:22;100907.53;;;10.35;79.80
58243;BME280;50118;53.232;8.252;2023-04-22T00:49:51;100903.00;;;10.16;80.71
58243;BME280;50118;53.232;8.252;2023-04-22T00:52:17;100905.34;;;9.99;81.67
58243;BME280;50118;53.232;8.252;2023-04-22T00:54:42;100909.81;;;9.89;84.08
58243;BME280;50118;53.232;8.252;2023-04-22T00:57:08;100897.88;;;9.73;84.49
58243;BME280;50118;53.232;8.252;2023-04-22T00:59:33;100900.97;;;9.69;85.34
58243;BME280;50118;53.232;8.252;2023-04-22T01:01:59;100893.22;;;9.56;86.93
58243;BME280;50118;53.232;8.252;2023-04-22T01:04:25;100892.38;;;9.56;86.46
58243;BME280;50118;53.232;8.252;2023-04-22T01:06:51;100908.03;;;9.49;88.21
58243;BME280;50118;53.232;8.252;2023-04-22T01:09:18;100902.00;;;9.47;87.86
58243;BME280;50118;53.232;8.252;2023-04-22T01:11:45;100901.13;;;9.37;89.13
58243;BME280;50118;53.232;8.252;2023-04-22T01:14:11;100897.84;;;9.23;90.00
58243;BME280;50118;53.232;8.252;2023-04-22T01:16:37;100898.69;;;9.24;90.22
58243;BME280;50118;53.232;8.252;2023-04-22T01:19:04;100897.00;;;9.23;91.33
58243;BME280;50118;53.232;8.252;2023-04-22T01:21:29;100888.53;;;9.08;92.51
58243;BME280;50118;53.232;8.252;2023-04-22T01:23:58;100888.28;;;9.11;91.36
58243;BME280;50118;53.232;8.252;2023-04-22T01:26:23;100885.66;;;9.21;91.01
58243;BME280;50118;53.232;8.252;2023-04-22T01:28:49;100878.53;;;9.21;89.91
58243;BME280;50118;53.232;8.252;2023-04-22T01:31:15;100883.00;;;9.21;90.60
58243;BME280;50118;53.232;8.252;2023-04-22T01:33:40;100879.06;;;9.15;90.14
58243;BME280;50118;53.232;8.252;2023-04-22T01:36:06;100873.03;;;9.13;90.04
58243;BME280;50118;53.232;8.252;2023-04-22T01:38:33;100877.81;;;9.19;89.71
58243;BME280;50118;53.232;8.252;2023-04-22T01:41:00;100868.56;;;9.13;90.15
58243;BME280;50118;53.232;8.252;2023-04-22T01:43:26;100869.22;;;9.06;90.45
58243;BME280;50118;53.232;8.252;2023-04-22T01:45:52;100867.81;;;9.02;90.74
58243;BME280;50118;53.232;8.252;2023-04-22T01:48:17;100865.09;;;8.92;92.31
58243;BME280;50118;53.232;8.252;2023-04-22T01:50:43;100870.53;;;8.90;92.16
58243;BME280;50118;53.232;8.252;2023-04-22T01:53:09;100861.03;;;8.88;91.65
58243;BME280;50118;53.232;8.252;2023-04-22T01:55:37;100865.75;;;8.84;92.01
58243;BME280;50118;53.232;8.252;2023-04-22T01:58:03;100866.72;;;8.83;93.54
58243;BME280;50118;53.232;8.252;2023-04-22T02:00:30;100860.19;;;8.87;91.74
58243;BME280;50118;53.232;8.252;2023-04-22T02:02:55;100852.38;;;8.95;91.65
58243;BME280;50118;53.232;8.252;2023-04-22T02:05:21;100844.25;;;8.87;91.80
58243;BME280;50118;53.232;8.252;2023-04-22T02:07:50;100857.97;;;8.92;91.19
58243;BME280;50118;53.232;8.252;2023-04-22T02:10:16;100841.03;;;8.84;91.36
58243;BME280;50118;53.232;8.252;2023-04-22T02:12:41;100844.38;;;8.86;92.40
58243;BME280;50118;53.232;8.252;2023-04-22T02:15:07;100848.66;;;8.77;92.49
58243;BME280;50118;53.232;8.252;2023-04-22T02:17:33;100841.59;;;8.87;92.24
58243;BME280;50118;53.232;8.252;2023-04-22T02:20:00;100838.88;;;8.77;92.86
58243;BME280;50118;53.232;8.252;2023-04-22T02:22:25;100826.63;;;8.86;92.82
58243;BME280;50118;53.232;8.252;2023-04-22T02:24:53;100833.03;;;8.84;92.23
58243;BME280;50118;53.232;8.252;2023-04-22T02:27:18;100825.22;;;8.82;92.98
58243;BME280;50118;53.232;8.252;2023-04-22T02:29:44;100824.22;;;8.83;92.68
58243;BME280;50118;53.232;8.252;2023-04-22T02:32:10;100827.75;;;8.93;92.44
58243;BME280;50118;53.232;8.252;2023-04-22T02:34:35;100830.56;;;8.92;92.33
58243;BME280;50118;53.232;8.252;2023-04-22T02:37:01;100829.97;;;8.88;92.34
58243;BME280;50118;53.232;8.252;2023-04-22T02:39:26;100830.41;;;8.93;91.45
58243;BME280;50118;53.232;8.252;2023-04-22T02:41:51;100824.09;;;8.85;92.22
58243;BME280;50118;53.232;8.252;2023-04-22T02:44:17;100817.50;;;8.79;92.17
58243;BME280;50118;53.232;8.252;2023-04-22T02:46:42;100814.13;;;8.77;91.74
58243;BME280;50118;53.232;8.252;2023-04-22T02:49:08;100804.78;;;8.83;91.05
58243;BME280;50118;53.232;8.252;2023-04-22T02:51:33;100812.44;;;8.76;92.11
58243;BME280;50118;53.232;8.252;2023-04-22T02:53:58;100804.72;;;8.73;92.35
58243;BME280;50118;53.232;8.252;2023-04-22T02:56:24;100805.28;;;8.67;93.16
58243;BME280;50118;53.232;8.252;2023-04-22T02:58:50;100796.88;;;8.62;93.06
58243;BME280;50118;53.232;8.252;2023-04-22T03:01:16;100810.41;;;8.58;93.44
58243;BME280;50118;53.232;8.252;2023-04-22T03:03:41;100791.16;;;8.45;93.90
58243;BME280;50118;53.232;8.252;2023-04-22T03:06:07;100797.25;;;8.57;93.79
58243;BME280;50118;53.232;8.252;2023-04-22T03:08:32;100792.69;;;8.48;94.37
58243;BME280;50118;53.232;8.252;2023-04-22T03:10:57;100787.81;;;8.43;94.80
58243;BME280;50118;53.232;8.252;2023-04-22T03:13:23;100792.06;;;8.55;94.21
58243;BME280;50118;53.232;8.252;2023-04-22T03:15:48;100796.13;;;8.59;93.59
58243;BME280;50118;53.232;8.252;2023-04-22T03:18:14;100787.72;;;8.54;93.57
58243;BME280;50118;53.232;8.252;2023-04-22T03:20:39;100794.72;;;8.55;93.91
58243;BME280;50118;53.232;8.252;2023-04-22T03:23:04;100788.75;;;8.63;93.41
58243;BME280;50118;53.232;8.252;2023-04-22T03:25:31;100787.25;;;8.49;94.01
58243;BME280;50118;53.232;8.252;2023-04-22T03:27:57;100776.91;;;8.46;94.67
58243;BME280;50118;53.232;8.252;2023-04-22T03:30:22;100780.28;;;8.48;94.50
58243;BME280;50118;53.232;8.252;2023-04-22T03:32:48;100787.91;;;8.63;93.76
58243;BME280;50118;53.232;8.252;2023-04-22T03:35:13;100771.53;;;8.57;93.47
58243;BME280;50118;53.232;8.252;2023-04-22T03:37:38;100778.13;;;8.63;93.51
58243;BME280;50118;53.232;8.252;2023-04-22T03:40:05;100773.66;;;8.64;93.08
58243;BME280;50118;53.232;8.252;2023-04-22T03:42:31;100769.88;;;8.56;93.25
58243;BME280;50118;53.232;8.252;2023-04-22T03:44:56;100770.13;;;8.53;93.43
58243;BME280;50118;53.232;8.252;2023-04-22T03:47:22;100770.31;;;8.62;93.40
58243;BME280;50118;53.232;8.252;2023-04-22T03:49:47;100769.63;;;8.69;93.14
58243;BME280;50118;53.232;8.252;2023-04-22T03:52:13;100762.94;;;8.75;93.03
58243;BME280;50118;53.232;8.252;2023-04-22T03:54:38;100761.84;;;8.77;92.97
58243;BME280;50118;53.232;8.252;2023-04-22T03:57:05;100759.75;;;8.81;92.42
58243;BME280;50118;53.232;8.252;2023-04-22T03:59:30;100750.03;;;8.91;91.78
58243;BME280;50118;53.232;8.252;2023-04-22T04:01:56;100759.81;;;9.01;91.37
58243;BME280;50118;53.232;8.252;2023-04-22T04:04:21;100753.47;;;9.13;90.34
58243;BME280;50118;53.232;8.252;2023-04-22T04:06:47;100756.69;;;9.16;90.09
58243;BME280;50118;53.232;8.252;2023-04-22T04:09:13;100757.66;;;9.15;89.62
58243;BME280;50118;53.232;8.252;2023-04-22T04:11:38;100747.88;;;9.16;89.49
58243;BME280;50118;53.232;8.252;2023-04-22T04:14:04;100749.28;;;9.20;89.54
58243;BME280;50118;53.232;8.252;2023-04-22T04:16:29;100744.22;;;9.17;89.91
58243;BME280;50118;53.232;8.252;2023-04-22T04:18:54;100748.84;;;9.15;90.16
58243;BME280;50118;53.232;8.252;2023-04-22T04:21:20;100752.38;;;9.25;89.84
58243;BME280;50118;53.232;8.252;2023-04-22T04:23:46;100751.81;;;9.22;89.67
58243;BME280;50118;53.232;8.252;2023-04-22T04:26:11;100749.72;;;9.25;89.43
58243;BME280;50118;53.232;8.252;2023-04-22T04:28:39;100751.94;;;9.20;90.16
58243;BME280;50118;53.232;8.252;2023-04-22T04:31:06;100752.63;;;9.22;90.19
58243;BME280;50118;53.232;8.252;2023-04-22T04:33:31;100751.22;;;9.18;90.55
58243;BME280;50118;53.232;8.252;2023-04-22T04:35:57;100744.78;;;9.11;91.22
58243;BME280;50118;53.232;8.252;2023-04-22T04:38:23;100740.31;;;9.11;91.13
58243;BME280;50118;53.232;8.252;2023-04-22T04:40:50;100739.34;;;9.22;91.35
58243;BME280;50118;53.232;8.252;2023-04-22T04:43:15;100744.78;;;9.11;91.61
58243;BME280;50118;53.232;8.252;2023-04-22T04:45:41;100735.41;;;9.16;91.72
58243;BME280;50118;53.232;8.252;2023-04-22T04:48:14;100739.34;;;9.22;91.63
58243;BME280;50118;53.232;8.252;2023-04-22T04:50:43;100742.56;;;9.16;91.51
58243;BME280;50118;53.232;8.252;2023-04-22T04:53:09;100734.03;;;9.22;91.89
58243;BME280;50118;53.232;8.252;2023-04-22T04:55:35;100726.22;;;9.30;91.06
58243;BME280;50118;53.232;8.252;2023-04-22T04:58:00;100732.78;;;9.26;91.61
58243;BME280;50118;53.232;8.252;2023-04-22T05:00:26;100736.56;;;9.33;91.35
58243;BME280;50118;53.232;8.252;2023-04-22T05:02:51;100725.53;;;9.48;90.61
58243;BME280;50118;53.232;8.252;2023-04-22T05:05:17;100733.94;;;9.63;91.01
58243;BME280;50118;53.232;8.252;2023-04-22T05:07:42;100729.47;;;9.83;88.28
58243;BME280;50118;53.232;8.252;2023-04-22T05:10:08;100724.97;;;10.32;85.35
58243;BME280;50118;53.232;8.252;2023-04-22T05:12:34;100725.75;;;10.52;84.13
58243;BME280;50118;53.232;8.252;2023-04-22T05:14:59;100731.47;;;10.95;81.66
58243;BME280;50118;53.232;8.252;2023-04-22T05:17:25;100725.44;;;11.20;78.52
58243;BME280;50118;53.232;8.252;2023-04-22T05:19:51;100727.66;;;11.79;74.92
58243;BME280;50118;53.232;8.252;2023-04-22T05:22:16;100726.09;;;12.57;70.15
58243;BME280;50118;53.232;8.252;2023-04-22T05:24:42;100720.16;;;13.14;67.95
58243;BME280;50118;53.232;8.252;2023-04-22T05:27:11;100717.97;;;13.85;64.02
58243;BME280;50118;53.232;8.252;2023-04-22T05:29:36;100717.88;;;14.50;59.63
58243;BME280;50118;53.232;8.252;2023-04-22T05:32:02;100717.03;;;15.06;59.20
58243;BME280;50118;53.232;8.252;2023-04-22T05:34:30;100709.75;;;14.91;57.63
58243;BME280;50118;53.232;8.252;2023-04-22T05:36:55;100722.75;;;15.03;56.60
58243;BME280;50118;53.232;8.252;2023-04-22T05:39:21;100715.88;;;14.61;58.16
58243;BME280;50118;53.232;8.252;2023-04-22T05:41:46;100723.28;;;15.29;56.64
58243;BME280;50118;53.232;8.252;2023-04-22T05:44:12;100722.41;;;15.06;57.40
58243;BME280;50118;53.232;8.252;2023-04-22T05:46:37;100717.94;;;14.26;60.27
58243;BME280;50118;53.232;8.252;2023-04-22T05:49:03;100734.66;;;14.44;60.19
58243;BME280;50118;53.232;8.252;2023-04-22T05:51:28;100727.81;;;14.00;61.96
58243;BME280;50118;53.232;8.252;2023-04-22T05:53:55;100727.44;;;13.46;66.23
58243;BME280;50118;53.232;8.252;2023-04-22T05:56:20;100730.69;;;13.74;64.34
58243;BME280;50118;53.232;8.252;2023-04-22T05:58:46;100741.06;;;14.18;63.44
58243;BME280;50118;53.232;8.252;2023-04-22T06:01:12;100740.69;;;14.22;63.35
58243;BME280;50118;53.232;8.252;2023-04-22T06:03:38;100746.91;;;14.22;62.56
58243;BME280;50118;53.232;8.252;2023-04-22T06:06:03;100747.38;;;13.60;64.87
58243;BME280;50118;53.232;8.252;2023-04-22T06:08:30;100751.59;;;13.20;68.58
58243;BME280;50118;53.232;8.252;2023-04-22T06:10:56;100741.06;;;12.76;70.54
58243;BME280;50118;53.232;8.252;2023-04-22T06:13:21;100741.91;;;12.50;73.13
58243;BME280;50118;53.232;8.252;2023-04-22T06:15:47;100747.38;;;12.22;74.16
58243;BME280;50118;53.232;8.252;2023-04-22T06:18:12;100741.22;;;12.48;73.33
58243;BME280;50118;53.232;8.252;2023-04-22T06:20:38;100735.88;;;12.48;73.96
58243;BME280;50118;53.232;8.252;2023-04-22T06:23:04;100730.63;;;12.91;72.96
58243;BME280;50118;53.232;8.252;2023-04-22T06:25:32;100733.75;;;12.86;71.10
58243;BME280;50118;53.232;8.252;2023-04-22T06:27:58;100739.34;;;13.09;70.63
58243;BME280;50118;53.232;8.252;2023-04-22T06:30:24;100740.97;;;13.36;69.85
58243;BME280;50118;53.232;8.252;2023-04-22T06:32:53;100738.94;;;13.30;69.23
58243;BME280;50118;53.232;8.252;2023-04-22T06:35:20;100730.66;;;13.66;68.49
58243;BME280;50118;53.232;8.252;2023-04-22T06:37:46;100730.63;;;14.32;67.07
58243;BME280;50118;53.232;8.252;2023-04-22T06:40:13;100726.56;;;14.69;63.32
58243;BME280;50118;53.232;8.252;2023-04-22T06:42:39;100726.06;;;15.13;62.93
58243;BME280;50118;53.232;8.252;2023-04-22T06:45:05;100723.81;;;15.25;60.43
58243;BME280;50118;53.232;8.252;2023-04-22T06:47:30;100721.31;;;14.84;62.79
58243;BME280;50118;53.232;8.252;2023-04-22T06:49:56;100728.53;;;15.46;61.75
58243;BME280;50118;53.232;8.252;2023-04-22T06:52:21;100725.16;;;15.98;58.51
58243;BME280;50118;53.232;8.252;2023-04-22T06:54:47;100710.19;;;16.04;58.31
58243;BME280;50118;53.232;8.252;2023-04-22T06:57:15;100701.72;;;16.30;58.43
58243;BME280;50118;53.232;8.252;2023-04-22T06:59:41;100705.63;;;16.87;55.13
58243;BME280;50118;53.232;8.252;2023-04-22T07:02:07;100708.66;;;16.99;55.87
58243;BME280;50118;53.232;8.252;2023-04-22T07:04:32;100706.25;;;17.04;53.84
58243;BME280;50118;53.232;8.252;2023-04-22T07:06:58;100715.78;;;17.22;54.35
58243;BME280;50118;53.232;8.252;2023-04-22T07:09:25;100711.19;;;17.37;51.79
58243;BME280;50118;53.232;8.252;2023-04-22T07:11:50;100712.53;;;17.48;52.29
58243;BME280;50118;53.232;8.252;2023-04-22T07:14:16;100708.72;;;17.21;52.66
58243;BME280;50118;53.232;8.252;2023-04-22T07:16:42;100709.72;;;17.78;52.56
58243;BME280;50118;53.232;8.252;2023-04-22T07:19:16;100708.75;;;17.85;51.44
58243;BME280;50118;53.232;8.252;2023-04-22T07:21:41;100704.81;;;18.09;53.03
58243;BME280;50118;53.232;8.252;2023-04-22T07:24:07;100710.16;;;18.03;52.15
58243;BME280;50118;53.232;8.252;2023-04-22T07:26:36;100695.22;;;18.00;51.38
58243;BME280;50118;53.232;8.252;2023-04-22T07:29:02;100704.78;;;18.03;51.34
58243;BME280;50118;53.232;8.252;2023-04-22T07:31:29;100709.66;;;17.92;51.47
58243;BME280;50118;53.232;8.252;2023-04-22T07:33:54;100708.75;;;17.85;51.64
58243;BME280;50118;53.232;8.252;2023-04-22T07:36:20;100725.66;;;17.72;55.61
58243;BME280;50118;53.232;8.252;2023-04-22T07:38:48;100709.22;;;17.67;52.92
58243;BME280;50118;53.232;8.252;2023-04-22T07:41:14;100710.56;;;17.57;53.28
58243;BME280;50118;53.232;8.252;2023-04-22T07:43:39;100707.34;;;17.68;54.36
58243;BME280;50118;53.232;8.252;2023-04-22T07:46:05;100705.28;;;17.70;55.52
58243;BME280;50118;53.232;8.252;2023-04-22T07:48:50;100709.06;;;17.32;57.29
58243;BME280;50118;53.232;8.252;2023-04-22T07:51:16;100710.28;;;17.30;56.32
58243;BME280;50118;53.232;8.252;2023-04-22T07:53:44;100714.66;;;17.74;55.63
58243;BME280;50118;53.232;8.252;2023-04-22T07:56:12;100714.84;;;17.51;57.23
58243;BME280;50118;53.232;8.252;2023-04-22T07:58:38;100718.28;;;17.23;58.17
58243;BME280;50118;53.232;8.252;2023-04-22T08:01:03;100717.09;;;17.69;55.97
58243;BME280;50118;53.232;8.252;2023-04-22T08:03:29;100712.09;;;17.66;55.75
58243;BME280;50118;53.232;8.252;2023-04-22T08:05:55;100705.13;;;17.93;55.76
58243;BME280;50118;53.232;8.252;2023-04-22T08:08:22;100704.41;;;17.84;55.71
58243;BME280;50118;53.232;8.252;2023-04-22T08:10:48;100704.97;;;18.29;55.97
58243;BME280;50118;53.232;8.252;2023-04-22T08:13:13;100710.31;;;18.51;52.76
58243;BME280;50118;53.232;8.252;2023-04-22T08:15:39;100709.06;;;18.54;54.94
58243;BME280;50118;53.232;8.252;2023-04-22T08:18:05;100703.72;;;18.95;54.40
58243;BME280;50118;53.232;8.252;2023-04-22T08:20:30;100709.41;;;18.79;52.84
58243;BME280;50118;53.232;8.252;2023-04-22T08:22:56;100703.44;;;18.48;53.77
58243;BME280;50118;53.232;8.252;2023-04-22T08:25:25;100702.47;;;18.98;52.68
58243;BME280;50118;53.232;8.252;2023-04-22T08:27:51;100696.31;;;19.11;52.15
58243;BME280;50118;53.232;8.252;2023-04-22T08:30:19;100693.00;;;19.22;49.96
58243;BME280;50118;53.232;8.252;2023-04-22T08:32:45;100699.09;;;19.51;49.97
58243;BME280;50118;53.232;8.252;2023-04-22T08:35:11;100699.75;;;19.73;49.38
58243;BME280;50118;53.232;8.252;2023-04-22T08:37:37;100691.41;;;19.61;52.45
58243;BME280;50118;53.232;8.252;2023-04-22T08:40:05;100691.84;;;19.71;49.21
58243;BME280;50118;53.232;8.252;2023-04-22T08:42:30;100674.84;;;20.11;48.90
58243;BME280;50118;53.232;8.252;2023-04-22T08:44:57;100676.94;;;19.95;49.96
58243;BME280;50118;53.232;8.252;2023-04-22T08:47:24;100677.28;;;20.39;47.28
58243;BME280;50118;53.232;8.252;2023-04-22T08:49:50;100666.88;;;20.36;47.40
58243;BME280;50118;53.232;8.252;2023-04-22T08:52:17;100664.94;;;20.57;50.02
58243;BME280;50118;53.232;8.252;2023-04-22T08:54:43;100638.47;;;20.72;46.46
58243;BME280;50118;53.232;8.252;2023-04-22T08:57:08;100643.22;;;20.83;46.32
58243;BME280;50118;53.232;8.252;2023-04-22T08:59:36;100652.59;;;20.87;46.58
58243;BME280;50118;53.232;8.252;2023-04-22T09:02:03;100642.84;;;21.50;45.14
58243;BME280;50118;53.232;8.252;2023-04-22T09:04:32;100647.44;;;22.44;43.48
58243;BME280;50118;53.232;8.252;2023-04-22T09:07:00;100647.97;;;22.71;44.18
58243;BME280;50118;53.232;8.252;2023-04-22T09:09:27;100649.81;;;23.07;41.32
58243;BME280;50118;53.232;8.252;2023-04-22T09:11:55;100638.16;;;21.89;43.72
58243;BME280;50118;53.232;8.252;2023-04-22T09:14:21;100639.81;;;22.15;44.51
58243;BME280;50118;53.232;8.252;2023-04-22T09:16:47;100647.16;;;22.52;41.53
58243;BME280;50118;53.232;8.252;2023-04-22T09:19:14;100635.41;;;22.40;42.46
58243;BME280;50118;53.232;8.252;2023-04-22T09:21:40;100634.78;;;22.56;42.95
58243;BME280;50118;53.232;8.252;2023-04-22T09:24:07;100630.97;;;22.01;44.02
58243;BME280;50118;53.232;8.252;2023-04-22T09:26:38;100644.56;;;22.75;42.45
58243;BME280;50118;53.232;8.252;2023-04-22T09:29:05;100638.28;;;22.93;42.39
58243;BME280;50118;53.232;8.252;2023-04-22T09:31:33;100630.19;;;22.38;41.58
58243;BME280;50118;53.232;8.252;2023-04-22T09:34:00;100636.97;;;23.15;44.40
58243;BME280;50118;53.232;8.252;2023-04-22T09:36:27;100641.06;;;23.47;41.71
58243;BME280;50118;53.232;8.252;2023-04-22T09:38:57;100621.59;;;23.74;40.29
58243;BME280;50118;53.232;8.252;2023-04-22T09:43:57;100620.66;;;23.57;40.79
58243;BME280;50118;53.232;8.252;2023-04-22T09:46:24;100618.03;;;24.33;39.96
58243;BME280;50118;53.232;8.252;2023-04-22T09:48:51;100613.09;;;23.59;42.06
58243;BME280;50118;53.232;8.252;2023-04-22T09:51:17;100622.06;;;23.71;41.49
58243;BME280;50118;53.232;8.252;2023-04-22T09:53:43;100622.69;;;23.97;40.15
58243;BME280;50118;53.232;8.252;2023-04-22T09:56:09;100617.56;;;23.65;41.16
58243;BME280;50118;53.232;8.252;2023-04-22T09:58:38;100615.84;;;24.06;40.04
58243;BME280;50118;53.232;8.252;2023-04-22T10:01:04;100616.84;;;23.04;42.52
58243;BME280;50118;53.232;8.252;2023-04-22T10:03:31;100608.41;;;23.24;42.44
58243;BME280;50118;53.232;8.252;2023-04-22T10:05:57;100617.38;;;22.94;42.56
58243;BME280;50118;53.232;8.252;2023-04-22T10:08:23;100618.38;;;22.81;42.56
58243;BME280;50118;53.232;8.252;2023-04-22T10:10:55;100611.63;;;23.02;40.59
58243;BME280;50118;53.232;8.252;2023-04-22T10:13:20;100616.53;;;22.45;42.32
58243;BME280;50118;53.232;8.252;2023-04-22T10:15:51;100605.97;;;22.73;43.01
58243;BME280;50118;53.232;8.252;2023-04-22T10:18:22;100615.16;;;23.03;41.77
58243;BME280;50118;53.232;8.252;2023-04-22T10:20:49;100606.78;;;23.35;40.02
58243;BME280;50118;53.232;8.252;2023-04-22T10:23:20;100601.63;;;23.57;39.61
58243;BME280;50118;53.232;8.252;2023-04-22T10:25:47;100609.28;;;23.36;40.62
58243;BME280;50118;53.232;8.252;2023-04-22T10:28:15;100608.19;;;23.37;39.17
58243;BME280;50118;53.232;8.252;2023-04-22T10:30:40;100604.50;;;23.20;39.52
58243;BME280;50118;53.232;8.252;2023-04-22T10:36:18;100605.56;;;23.84;38.40
58243;BME280;50118;53.232;8.252;2023-04-22T10:41:27;100589.72;;;24.05;38.85
58243;BME280;50118;53.232;8.252;2023-04-22T10:44:04;100589.09;;;23.67;39.32
58243;BME280;50118;53.232;8.252;2023-04-22T10:49:08;100583.31;;;22.49;41.62
58243;BME280;50118;53.232;8.252;2023-04-22T10:57:06;100578.34;;;22.77;41.24
58243;BME280;50118;53.232;8.252;2023-04-22T10:59:39;100572.81;;;22.53;42.39
58243;BME280;50118;53.232;8.252;2023-04-22T11:02:06;100562.22;;;23.24;40.62
58243;BME280;50118;53.232;8.252;2023-04-22T11:04:32;100552.44;;;22.92;40.55
58243;BME280;50118;53.232;8.252;2023-04-22T11:09:46;100546.16;;;23.10;42.40
58243;BME280;50118;53.232;8.252;2023-04-22T11:15:18;100549.63;;;22.99;40.38
58243;BME280;50118;53.232;8.252;2023-04-22T11:17:50;100540.72;;;23.10;41.41
58243;BME280;50118;53.232;8.252;2023-04-22T11:20:16;100534.06;;;24.24;41.48
58243;BME280;50118;53.232;8.252;2023-04-22T11:22:52;100533.16;;;23.72;40.16
58243;BME280;50118;53.232;8.252;2023-04-22T11:25:19;100529.38;;;24.08;38.36
58243;BME280;50118;53.232;8.252;2023-04-22T11:27:45;100533.09;;;24.71;39.55
58243;BME280;50118;53.232;8.252;2023-04-22T11:30:16;100528.06;;;24.11;38.77
58243;BME280;50118;53.232;8.252;2023-04-22T11:32:43;100524.91;;;23.55;39.08
58243;BME280;50118;53.232;8.252;2023-04-22T11:35:11;100518.41;;;23.32;40.06
58243;BME280;50118;53.232;8.252;2023-04-22T11:37:54;100514.97;;;23.72;40.10
58243;BME280;50118;53.232;8.252;2023-04-22T11:40:32;100514.41;;;23.70;40.08
58243;BME280;50118;53.232;8.252;2023-04-22T11:42:59;100505.25;;;24.00;38.64
58243;BME280;50118;53.232;8.252;2023-04-22T11:45:26;100505.84;;;23.78;39.78
58243;BME280;50118;53.232;8.252;2023-04-22T11:47:52;100505.28;;;23.29;40.85
58243;BME280;50118;53.232;8.252;2023-04-22T11:50:20;100505.75;;;23.49;41.13
58243;BME280;50118;53.232;8.252;2023-04-22T11:52:58;100498.78;;;23.77;39.78
58243;BME280;50118;53.232;8.252;2023-04-22T11:55:27;100497.78;;;23.01;41.22
58243;BME280;50118;53.232;8.252;2023-04-22T11:58:07;100497.25;;;23.34;39.76
58243;BME280;50118;53.232;8.252;2023-04-22T12:00:45;100497.00;;;23.47;39.16
58243;BME280;50118;53.232;8.252;2023-04-22T12:03:18;100503.69;;;24.04;39.09
58243;BME280;50118;53.232;8.252;2023-04-22T12:05:56;100487.69;;;24.60;36.29
58243;BME280;50118;53.232;8.252;2023-04-22T12:08:24;100487.47;;;24.09;36.90
58243;BME280;50118;53.232;8.252;2023-04-22T12:13:24;100490.16;;;23.80;38.67
58243;BME280;50118;53.232;8.252;2023-04-22T12:15:55;100495.56;;;24.33;37.32
58243;BME280;50118;53.232;8.252;2023-04-22T12:18:52;100501.63;;;23.35;36.94
58243;BME280;50118;53.232;8.252;2023-04-22T12:21:19;100500.19;;;23.56;37.56
58243;BME280;50118;53.232;8.252;2023-04-22T12:23:53;100499.97;;;23.58;37.51
58243;BME280;50118;53.232;8.252;2023-04-22T12:26:21;100506.09;;;23.89;38.03
58243;BME280;50118;53.232;8.252;2023-04-22T12:28:49;100494.06;;;23.61;37.59
58243;BME280;50118;53.232;8.252;2023-04-22T12:31:16;100494.16;;;23.78;38.34
58243;BME280;50118;53.232;8.252;2023-04-22T12:33:42;100497.81;;;23.95;38.56
58243;BME280;50118;53.232;8.252;2023-04-22T12:36:09;100481.78;;;23.35;38.39
58243;BME280;50118;53.232;8.252;2023-04-22T12:38:35;100490.41;;;23.43;37.63
58243;BME280;50118;53.232;8.252;2023-04-22T12:41:01;100482.47;;;23.89;38.91
58243;BME280;50118;53.232;8.252;2023-04-22T12:43:27;100481.03;;;23.98;39.65
58243;BME280;50118;53.232;8.252;2023-04-22T12:45:53;100475.31;;;24.12;37.70
58243;BME280;50118;53.232;8.252;2023-04-22T12:48:18;100475.16;;;24.18;37.93
58243;BME280;50118;53.232;8.252;2023-04-22T12:50:45;100472.25;;;24.08;36.91
58243;BME280;50118;53.232;8.252;2023-04-22T12:53:11;100463.00;;;23.33;38.85
58243;BME280;50118;53.232;8.252;2023-04-22T12:55:36;100463.56;;;23.59;37.98
58243;BME280;50118;53.232;8.252;2023-04-22T12:58:02;100456.59;;;23.39;37.79
58243;BME280;50118;53.232;8.252;2023-04-22T13:00:28;100461.78;;;23.17;38.89
58243;BME280;50118;53.232;8.252;2023-04-22T13:02:54;100454.44;;;22.94;39.36
58243;BME280;50118;53.232;8.252;2023-04-22T13:05:19;100451.16;;;23.39;39.25
58243;BME280;50118;53.232;8.252;2023-04-22T13:07:45;100452.47;;;23.60;38.78
58243;BME280;50118;53.232;8.252;2023-04-22T13:10:13;100441.25;;;23.33;39.27
58243;BME280;50118;53.232;8.252;2023-04-22T13:12:41;100440.94;;;22.75;40.70
58243;BME280;50118;53.232;8.252;2023-04-22T13:15:08;100436.13;;;22.89;40.61